Time;durP1;ratioP1;P1;durP2;ratioP2;P2;SDS_P1;SDS_P2;PMS_P1;PMS_P2;Temp;Humidity;BMP_temperature;BMP_pressure;BME280_temperature;BME280_humidity;BME280_pressure;Samples;Min_cycle;Max_cycle;Signal;HPM_P1;HPM_P2
2023/05/13 00:01:02;;;;;;;4.97;3.40;;;;;20.90;101965.00;;;;5064069;28;20234;-82
2023/05/13 00:03:30;;;;;;;3.88;3.42;;;;;20.90;101956.00;;;;5048360;28;20197;-83
2023/05/13 00:06:00;;;;;;;3.33;3.03;;;;;20.90;101963.00;;;;5066644;28;20242;-83
2023/05/13 00:08:27;;;;;;;7.00;3.83;;;;;20.90;101961.00;;;;5052539;28;20763;-81
2023/05/13 00:10:56;;;;;;;3.42;3.13;;;;;20.80;101967.00;;;;5061704;28;20202;-82
2023/05/13 00:13:23;;;;;;;4.72;3.25;;;;;20.80;101970.00;;;;5057018;28;20239;-83
2023/05/13 00:15:50;;;;;;;3.45;3.15;;;;;20.80;101963.00;;;;5066046;28;20202;-83
2023/05/13 00:18:18;;;;;;;6.05;3.55;;;;;20.80;101961.00;;;;5047981;28;20200;-82
2023/05/13 00:20:45;;;;;;;5.32;3.33;;;;;20.70;101967.00;;;;5048057;28;20231;-83
2023/05/13 00:23:13;;;;;;;4.28;3.08;;;;;20.70;101961.00;;;;5048828;28;20685;-82
2023/05/13 00:25:42;;;;;;;4.32;2.65;;;;;20.70;101963.00;;;;5065769;28;20199;-82
2023/05/13 00:28:13;;;;;;;3.72;3.30;;;;;20.70;101961.00;;;;5057023;28;20302;-83
2023/05/13 00:30:42;;;;;;;5.60;3.00;;;;;20.70;101965.00;;;;5048848;28;20238;-83
2023/05/13 00:33:09;;;;;;;5.03;3.13;;;;;20.70;101960.00;;;;5061309;28;20199;-83
2023/05/13 00:35:37;;;;;;;4.85;3.15;;;;;20.60;101953.00;;;;5051664;28;20725;-83
2023/05/13 00:38:04;;;;;;;2.88;2.53;;;;;20.60;101953.00;;;;5048115;28;20215;-83
2023/05/13 00:40:33;;;;;;;3.13;2.80;;;;;20.60;101956.00;;;;5067604;28;20226;-83
2023/05/13 00:43:00;;;;;;;2.78;2.45;;;;;20.60;101956.00;;;;5048237;28;20196;-82
2023/05/13 00:45:29;;;;;;;3.13;2.85;;;;;20.50;101962.00;;;;5056216;28;20265;-83
2023/05/13 00:47:56;;;;;;;9.05;3.30;;;;;20.50;101958.00;;;;5067438;28;20573;-83
2023/05/13 00:50:24;;;;;;;2.92;2.72;;;;;20.50;101959.00;;;;5068363;28;20206;-83
2023/05/13 00:52:51;;;;;;;2.80;2.60;;;;;20.50;101956.00;;;;5050246;28;20203;-83
2023/05/13 00:55:18;;;;;;;3.70;3.28;;;;;20.50;101955.00;;;;5065170;28;20214;-83
2023/05/13 00:57:46;;;;;;;6.03;3.08;;;;;20.40;101957.00;;;;5064373;28;20196;-81
2023/05/13 01:00:14;;;;;;;5.18;3.10;;;;;20.40;101949.00;;;;5047771;28;20592;-83
2023/05/13 01:02:50;;;;;;;3.25;2.95;;;;;20.30;101957.00;;;;5048316;28;20290;-82
2023/05/13 01:05:30;;;;;;;5.97;3.28;;;;;20.30;101952.00;;;;5048683;28;20657;-83
2023/05/13 01:08:03;;;;;;;4.80;3.50;;;;;20.30;101955.00;;;;5051371;28;20195;-82
2023/05/13 01:10:38;;;;;;;4.60;3.20;;;;;20.20;101946.00;;;;5058375;28;20192;-83
2023/05/13 01:13:23;;;;;;;4.60;2.78;;;;;20.10;101944.00;;;;5051151;28;20202;-83
2023/05/13 01:15:56;;;;;;;5.50;3.20;;;;;20.20;101941.00;;;;5055783;28;20222;-83
2023/05/13 01:18:30;;;;;;;3.20;2.83;;;;;20.20;101946.00;;;;5048128;28;20207;-82
2023/05/13 01:21:01;;;;;;;3.42;2.58;;;;;20.10;101946.00;;;;5047968;28;20227;-83
2023/05/13 01:23:29;;;;;;;2.55;2.35;;;;;20.10;101946.00;;;;5064228;28;21314;-82
2023/05/13 01:25:57;;;;;;;3.42;3.13;;;;;20.10;101944.00;;;;5048322;28;20215;-82
2023/05/13 01:28:24;;;;;;;3.72;3.25;;;;;20.10;101947.00;;;;5047862;28;20580;-82
2023/05/13 01:30:52;;;;;;;3.22;2.88;;;;;20.00;101947.00;;;;5048049;28;20211;-82
2023/05/13 01:33:19;;;;;;;3.33;2.75;;;;;20.00;101946.00;;;;5048853;28;20436;-82
2023/05/13 01:35:47;;;;;;;4.05;2.92;;;;;20.00;101945.00;;;;5052264;28;20230;-83
2023/05/13 01:38:15;;;;;;;4.97;3.17;;;;;20.00;101947.00;;;;5052980;28;20227;-82
2023/05/13 01:40:45;;;;;;;8.43;3.75;;;;;19.90;101948.00;;;;5051060;28;20215;-83
2023/05/13 01:43:12;;;;;;;6.32;3.30;;;;;19.90;101943.00;;;;5050686;28;20310;-82
2023/05/13 01:45:39;;;;;;;3.50;2.80;;;;;19.90;101949.00;;;;5070652;28;20191;-83
2023/05/13 01:48:06;;;;;;;5.32;3.40;;;;;19.80;101940.00;;;;5069263;28;20842;-83
2023/05/13 01:50:34;;;;;;;4.93;3.05;;;;;19.80;101936.00;;;;5060718;28;20767;-82
2023/05/13 01:53:01;;;;;;;3.47;3.17;;;;;19.80;101941.00;;;;5053912;28;20748;-82
2023/05/13 01:55:28;;;;;;;3.75;3.00;;;;;19.80;101946.00;;;;5061968;28;20680;-83
2023/05/13 01:57:57;;;;;;;5.78;3.22;;;;;19.80;101939.00;;;;5070610;28;20203;-83
2023/05/13 02:00:24;;;;;;;4.38;2.92;;;;;19.80;101942.00;;;;5068767;28;20215;-82
2023/05/13 02:02:51;;;;;;;4.47;3.17;;;;;19.80;101939.00;;;;5063039;28;20593;-83
2023/05/13 02:05:19;;;;;;;5.20;3.50;;;;;19.70;101931.00;;;;5051154;28;20203;-83
2023/05/13 02:07:46;;;;;;;4.05;3.50;;;;;19.70;101943.00;;;;5052612;28;20204;-82
2023/05/13 02:10:13;;;;;;;3.53;3.22;;;;;19.70;101941.00;;;;5050492;28;20293;-82
2023/05/13 02:12:41;;;;;;;3.88;3.35;;;;;19.60;101938.00;;;;5062964;28;20581;-82
2023/05/13 02:15:10;;;;;;;4.35;3.65;;;;;19.60;101939.00;;;;5049840;28;20429;-82
2023/05/13 02:17:38;;;;;;;4.78;3.53;;;;;19.60;101939.00;;;;5064770;28;20222;-83
2023/05/13 02:20:06;;;;;;;5.03;3.75;;;;;19.60;101933.00;;;;5069977;28;20195;-82
2023/05/13 02:22:33;;;;;;;4.00;3.60;;;;;19.60;101934.00;;;;5068810;28;20223;-83
2023/05/13 02:25:01;;;;;;;4.32;3.58;;;;;19.50;101935.00;;;;5050847;28;20218;-82
2023/05/13 02:27:28;;;;;;;4.40;3.22;;;;;19.50;101941.00;;;;5064091;28;20195;-81
2023/05/13 02:29:55;;;;;;;3.78;3.42;;;;;19.50;101941.00;;;;5068822;28;20207;-82
2023/05/13 02:32:24;;;;;;;4.85;3.72;;;;;19.40;101943.00;;;;5059520;28;20222;-82
2023/05/13 02:34:51;;;;;;;4.57;3.88;;;;;19.40;101943.00;;;;5050354;28;20231;-82
2023/05/13 02:37:18;;;;;;;4.43;4.00;;;;;19.40;101936.00;;;;5059931;28;20675;-82
2023/05/13 02:39:46;;;;;;;4.07;3.65;;;;;19.30;101937.00;;;;5054074;28;20514;-82
2023/05/13 02:42:13;;;;;;;6.70;3.83;;;;;19.30;101937.00;;;;5050090;28;20231;-80
2023/05/13 02:44:40;;;;;;;6.70;3.85;;;;;19.30;101937.00;;;;5049989;28;20199;-82
2023/05/13 02:47:07;;;;;;;7.88;3.72;;;;;19.20;101937.00;;;;5051562;28;20200;-82
2023/05/13 02:49:36;;;;;;;4.60;3.50;;;;;19.20;101932.00;;;;5048216;28;20211;-82
2023/05/13 02:52:03;;;;;;;5.75;4.18;;;;;19.20;101931.00;;;;5051429;28;20207;-82
2023/05/13 02:54:31;;;;;;;5.78;4.20;;;;;19.10;101935.00;;;;5061464;28;20592;-82
2023/05/13 02:56:58;;;;;;;5.97;4.50;;;;;19.10;101934.00;;;;5067157;28;20664;-82
2023/05/13 02:59:25;;;;;;;5.47;4.97;;;;;19.10;101939.00;;;;5050458;28;20191;-82
2023/05/13 03:01:52;;;;;;;6.72;4.28;;;;;19.00;101929.00;;;;5049370;28;20242;-82
2023/05/13 03:04:20;;;;;;;5.43;4.50;;;;;19.00;101921.00;;;;5061224;28;20207;-80
2023/05/13 03:06:49;;;;;;;7.05;4.50;;;;;18.90;101925.00;;;;5054691;28;20303;-81
2023/05/13 03:09:16;;;;;;;5.10;4.22;;;;;18.90;101930.00;;;;5049260;28;20744;-82
2023/05/13 03:11:43;;;;;;;4.82;4.43;;;;;18.90;101923.00;;;;5066733;28;20207;-82
2023/05/13 03:14:10;;;;;;;5.50;5.00;;;;;18.90;101925.00;;;;5050121;28;20204;-81
2023/05/13 03:16:38;;;;;;;5.85;4.90;;;;;18.80;101929.00;;;;5049536;28;20199;-81
2023/05/13 03:19:05;;;;;;;5.55;4.90;;;;;18.80;101927.00;;;;5050577;28;20191;-82
2023/05/13 03:21:32;;;;;;;6.28;4.55;;;;;18.70;101931.00;;;;5049677;28;20230;-83
2023/05/13 03:24:01;;;;;;;4.88;3.83;;;;;18.70;101934.00;;;;5049087;28;20665;-81
2023/05/13 03:26:28;;;;;;;6.70;4.40;;;;;18.70;101927.00;;;;5048780;28;20577;-82
2023/05/13 03:28:56;;;;;;;5.20;4.70;;;;;18.60;101930.00;;;;5066088;28;20595;-82
2023/05/13 03:31:23;;;;;;;5.07;4.28;;;;;18.60;101929.00;;;;5060663;28;20254;-80
2023/05/13 03:33:50;;;;;;;6.63;5.03;;;;;18.60;101937.00;;;;5047675;28;20200;-82
2023/05/13 03:36:17;;;;;;;5.65;5.03;;;;;18.60;101937.00;;;;5047860;28;20231;-81
2023/05/13 03:38:45;;;;;;;5.97;5.05;;;;;18.50;101927.00;;;;5048213;28;20693;-82
2023/05/13 03:41:16;;;;;;;5.68;5.00;;;;;18.50;101936.00;;;;5048500;28;20215;-82
2023/05/13 03:43:43;;;;;;;6.43;5.45;;;;;18.50;101932.00;;;;5047708;28;20203;-83
2023/05/13 03:46:11;;;;;;;8.20;5.05;;;;;18.50;101936.00;;;;5056572;28;20207;-81
2023/05/13 03:48:38;;;;;;;7.35;5.50;;;;;18.40;101940.00;;;;5064631;28;20213;-82
2023/05/13 03:51:05;;;;;;;7.82;5.88;;;;;18.40;101936.00;;;;5064407;28;20692;-81
2023/05/13 03:53:33;;;;;;;7.35;5.50;;;;;18.40;101942.00;;;;5052368;28;20190;-81
2023/05/13 03:56:00;;;;;;;6.88;5.55;;;;;18.30;101939.00;;;;5052589;28;20210;-80
2023/05/13 03:58:29;;;;;;;5.78;5.15;;;;;18.30;101937.00;;;;5058225;28;20202;-81
2023/05/13 04:00:56;;;;;;;6.70;4.93;;;;;18.30;101936.00;;;;5066901;28;20223;-81
2023/05/13 04:03:23;;;;;;;9.48;5.45;;;;;18.30;101943.00;;;;5067352;28;20685;-82
2023/05/13 04:05:52;;;;;;;6.18;5.00;;;;;18.20;101945.00;;;;5056522;28;20207;-80
2023/05/13 04:08:19;;;;;;;6.88;5.13;;;;;18.20;101939.00;;;;5054641;28;20211;-82
2023/05/13 04:10:47;;;;;;;5.75;5.05;;;;;18.20;101944.00;;;;5058138;28;20214;-81
2023/05/13 04:13:14;;;;;;;10.55;5.28;;;;;18.20;101944.00;;;;5068161;28;20206;-81
2023/05/13 04:15:43;;;;;;;8.00;5.28;;;;;18.10;101939.00;;;;5068253;28;20198;-81
2023/05/13 04:18:10;;;;;;;7.35;5.80;;;;;18.10;101944.00;;;;5067801;28;20563;-83
2023/05/13 04:20:38;;;;;;;11.93;5.85;;;;;18.10;101940.00;;;;5065830;28;20565;-82
2023/05/13 04:23:06;;;;;;;7.30;5.68;;;;;18.10;101946.00;;;;5065845;28;20202;-79
2023/05/13 04:25:34;;;;;;;8.25;5.68;;;;;18.10;101943.00;;;;5047784;28;20199;-81
2023/05/13 04:28:01;;;;;;;6.47;5.75;;;;;18.10;101946.00;;;;5047854;28;20207;-81
2023/05/13 04:30:29;;;;;;;9.38;5.70;;;;;18.10;101952.00;;;;5051386;28;20195;-80
2023/05/13 04:32:57;;;;;;;7.85;6.88;;;;;18.10;101952.00;;;;5052800;28;20215;-81
2023/05/13 04:35:25;;;;;;;6.18;5.43;;;;;18.10;101954.00;;;;5047504;28;20226;-82
2023/05/13 04:37:52;;;;;;;6.28;5.53;;;;;18.10;101959.00;;;;5047674;28;20403;-80
2023/05/13 04:40:20;;;;;;;7.03;5.55;;;;;18.10;101954.00;;;;5049451;28;20204;-81
2023/05/13 04:42:53;;;;;;;6.65;6.03;;;;;18.10;101960.00;;;;5047918;28;20234;-81
2023/05/13 04:45:20;;;;;;;8.13;6.60;;;;;18.10;101957.00;;;;5047969;28;20258;-82
2023/05/13 04:47:47;;;;;;;7.15;5.45;;;;;18.10;101964.00;;;;5047467;28;20735;-83
2023/05/13 04:50:16;;;;;;;6.45;5.05;;;;;18.10;101962.00;;;;5049758;28;20204;-81
2023/05/13 04:52:45;;;;;;;8.48;6.47;;;;;18.10;101962.00;;;;5050988;28;20206;-81
2023/05/13 04:55:12;;;;;;;8.48;6.45;;;;;18.10;101967.00;;;;5065270;28;20657;-82
2023/05/13 04:57:39;;;;;;;6.30;5.70;;;;;18.10;101969.00;;;;5062989;28;20211;-80
2023/05/13 05:00:08;;;;;;;8.35;5.78;;;;;18.10;101973.00;;;;5049791;28;20199;-81
2023/05/13 05:02:35;;;;;;;7.38;6.60;;;;;18.10;101974.00;;;;5048798;28;20234;-79
2023/05/13 05:05:02;;;;;;;6.90;5.85;;;;;18.10;101975.00;;;;5048013;28;20208;-81
2023/05/13 05:07:31;;;;;;;6.32;5.70;;;;;18.10;101985.00;;;;5047952;28;20211;-82
2023/05/13 05:09:58;;;;;;;7.78;6.97;;;;;18.20;101980.00;;;;5059625;28;20206;-82
2023/05/13 05:12:26;;;;;;;8.07;5.65;;;;;18.20;101977.00;;;;5050499;28;20204;-82
2023/05/13 05:14:53;;;;;;;7.18;6.07;;;;;18.20;101973.00;;;;5052574;28;20215;-82
2023/05/13 05:17:20;;;;;;;8.82;6.88;;;;;18.20;101980.00;;;;5053549;28;20211;-82
2023/05/13 05:19:47;;;;;;;8.40;5.85;;;;;18.30;101975.00;;;;5066432;28;20195;-82
2023/05/13 05:22:15;;;;;;;7.95;6.15;;;;;18.30;101977.00;;;;5070922;28;20225;-81
2023/05/13 05:24:43;;;;;;;7.88;7.07;;;;;18.30;101977.00;;;;5071560;28;20586;-82
2023/05/13 05:27:11;;;;;;;6.88;6.20;;;;;18.40;101980.00;;;;5070674;28;20661;-82
2023/05/13 05:29:38;;;;;;;7.63;6.00;;;;;18.40;101980.00;;;;5053758;28;20683;-81
2023/05/13 05:32:06;;;;;;;6.15;5.50;;;;;18.50;101983.00;;;;5063018;28;20294;-82
2023/05/13 05:34:33;;;;;;;7.65;5.78;;;;;18.50;101991.00;;;;5064011;28;20234;-82
2023/05/13 05:37:01;;;;;;;9.82;6.03;;;;;18.60;101988.00;;;;5070463;28;20580;-82
2023/05/13 05:39:28;;;;;;;6.15;5.07;;;;;18.60;101979.00;;;;5060051;28;20315;-81
2023/05/13 05:41:57;;;;;;;7.45;5.57;;;;;18.60;101990.00;;;;5051412;28;20224;-81
2023/05/13 05:44:24;;;;;;;6.55;5.57;;;;;18.70;101990.00;;;;5053063;28;20199;-79
2023/05/13 05:46:59;;;;;;;7.85;5.82;;;;;18.70;101991.00;;;;5055395;28;20198;-81
2023/05/13 05:49:27;;;;;;;6.38;5.40;;;;;18.80;101996.00;;;;5062348;28;20198;-81
2023/05/13 05:51:54;;;;;;;5.57;4.80;;;;;18.90;102002.00;;;;5033131;28;20625;-81
2023/05/13 05:54:21;;;;;;;7.35;5.95;;;;;18.90;101998.00;;;;5051862;28;20769;-79
2023/05/13 05:56:49;;;;;;;5.47;4.80;;;;;19.00;102001.00;;;;5070554;28;20191;-81
2023/05/13 05:59:18;;;;;;;7.47;5.28;;;;;19.00;101997.00;;;;5052924;28;20208;-80
2023/05/13 06:01:45;;;;;;;6.47;5.00;;;;;19.10;101994.00;;;;5060351;28;20219;-81
2023/05/13 06:04:12;;;;;;;9.63;5.85;;;;;19.10;101994.00;;;;5060922;28;20199;-81
2023/05/13 06:06:40;;;;;;;6.20;5.18;;;;;19.20;101996.00;;;;5063029;28;20227;-80
2023/05/13 06:09:08;;;;;;;6.82;5.63;;;;;19.20;101990.00;;;;5058563;28;20204;-81
2023/05/13 06:11:35;;;;;;;10.90;6.15;;;;;19.30;101990.00;;;;5057892;28;20205;-80
2023/05/13 06:14:02;;;;;;;8.02;4.65;;;;;19.30;101995.00;;;;5054102;28;20226;-79
2023/05/13 06:16:31;;;;;;;5.35;4.80;;;;;19.40;101992.00;;;;5058991;28;20198;-79
2023/05/13 06:18:59;;;;;;;5.38;4.88;;;;;19.50;101997.00;;;;5059299;28;20941;-87
2023/05/13 06:21:26;;;;;;;7.70;5.03;;;;;19.50;101994.00;;;;5051523;28;20720;-80
2023/05/13 06:23:53;;;;;;;7.18;5.32;;;;;19.60;102000.00;;;;5053936;28;20211;-81
2023/05/13 06:26:20;;;;;;;6.82;5.30;;;;;19.70;101998.00;;;;5059307;28;20242;-85
2023/05/13 06:28:48;;;;;;;9.40;5.10;;;;;19.80;101996.00;;;;5059587;28;20192;-85
2023/05/13 06:31:16;;;;;;;5.43;4.93;;;;;19.90;101989.00;;;;5061913;28;20192;-84
2023/05/13 06:33:45;;;;;;;7.35;5.50;;;;;19.90;102000.00;;;;5055847;28;20188;-84
2023/05/13 06:36:13;;;;;;;5.13;4.60;;;;;20.00;102007.00;;;;5052610;28;20234;-85
2023/05/13 06:38:40;;;;;;;8.48;5.45;;;;;20.10;102005.00;;;;5053007;28;20212;-83
2023/05/13 06:41:07;;;;;;;5.60;5.10;;;;;20.20;102005.00;;;;5053347;28;20204;-84
2023/05/13 06:43:35;;;;;;;5.95;5.10;;;;;20.20;102004.00;;;;5050035;28;20631;-84
2023/05/13 06:46:02;;;;;;;5.97;5.38;;;;;20.30;102006.00;;;;5054732;28;20213;-85
2023/05/13 06:48:29;;;;;;;5.68;5.05;;;;;20.40;102003.00;;;;5061748;28;20260;-81
2023/05/13 06:50:58;;;;;;;5.63;4.90;;;;;20.40;102010.00;;;;5054020;28;20207;-80
2023/05/13 06:53:25;;;;;;;5.68;5.00;;;;;20.50;102002.00;;;;5050929;28;20553;-81
2023/05/13 06:55:53;;;;;;;5.55;5.05;;;;;20.60;102006.00;;;;5061849;28;20211;-81
2023/05/13 06:58:20;;;;;;;7.45;5.97;;;;;20.70;102009.00;;;;5049632;28;20207;-80
2023/05/13 07:00:47;;;;;;;9.80;5.15;;;;;20.80;102007.00;;;;5057323;28;20191;-80
2023/05/13 07:03:15;;;;;;;5.55;5.05;;;;;20.80;102001.00;;;;5049066;28;20223;-81
2023/05/13 07:05:42;;;;;;;5.50;4.93;;;;;20.90;102007.00;;;;5050551;28;20290;-80
2023/05/13 07:08:16;;;;;;;6.13;5.07;;;;;21.00;102005.00;;;;5049282;28;20795;-82
2023/05/13 07:10:43;;;;;;;6.00;5.40;;;;;21.10;101997.00;;;;5061076;28;20191;-80
2023/05/13 07:13:11;;;;;;;6.68;5.57;;;;;21.10;101999.00;;;;5050157;28;20261;-81
2023/05/13 07:15:38;;;;;;;6.07;5.47;;;;;21.20;102004.00;;;;5049209;28;20195;-81
2023/05/13 07:18:06;;;;;;;6.85;5.15;;;;;21.30;102009.00;;;;5049107;28;20200;-82
2023/05/13 07:20:33;;;;;;;5.93;4.63;;;;;21.40;102006.00;;;;5049114;28;20586;-80
2023/05/13 07:23:00;;;;;;;6.32;4.90;;;;;21.40;102011.00;;;;5049265;28;20701;-82
2023/05/13 07:25:29;;;;;;;5.53;4.65;;;;;21.50;102010.00;;;;5049388;28;20195;-81
2023/05/13 07:27:56;;;;;;;7.15;5.18;;;;;21.50;102010.00;;;;5062913;28;20226;-81
2023/05/13 07:30:24;;;;;;;7.35;4.72;;;;;21.60;102012.00;;;;5052040;28;20199;-82
2023/05/13 07:32:51;;;;;;;6.28;5.68;;;;;21.70;102011.00;;;;5063579;28;20224;-81
2023/05/13 07:35:19;;;;;;;5.80;5.20;;;;;21.80;102013.00;;;;5067817;28;20227;-81
2023/05/13 07:37:46;;;;;;;5.55;5.05;;;;;21.90;102006.00;;;;5068019;28;20219;-82
2023/05/13 07:40:14;;;;;;;7.07;5.07;;;;;21.90;102012.00;;;;5055576;28;20196;-81
2023/05/13 07:42:44;;;;;;;6.07;5.05;;;;;22.00;102011.00;;;;5051025;28;20697;-80
2023/05/13 07:45:11;;;;;;;7.28;5.18;;;;;22.10;102017.00;;;;5065978;28;20206;-81
2023/05/13 07:47:40;;;;;;;7.72;4.85;;;;;22.20;102009.00;;;;5069055;28;20198;-81
2023/05/13 07:50:08;;;;;;;5.38;4.85;;;;;22.30;102014.00;;;;5069102;28;20192;-80
2023/05/13 07:52:35;;;;;;;6.50;4.50;;;;;22.40;102018.00;;;;5066965;28;20806;-81
2023/05/13 07:55:03;;;;;;;5.38;4.85;;;;;22.50;102021.00;;;;5051949;28;20211;-82
2023/05/13 07:57:30;;;;;;;5.03;4.40;;;;;22.60;102022.00;;;;5049561;28;20202;-81
2023/05/13 07:59:59;;;;;;;7.60;5.05;;;;;22.70;102016.00;;;;5048492;28;20200;-81
2023/05/13 08:02:26;;;;;;;4.72;4.25;;;;;22.90;102015.00;;;;5048916;28;20227;-81
2023/05/13 08:04:54;;;;;;;5.80;4.25;;;;;23.00;102014.00;;;;5049203;28;20209;-81
2023/05/13 08:07:21;;;;;;;4.68;4.15;;;;;23.10;102007.00;;;;5048483;28;20212;-81
2023/05/13 08:09:49;;;;;;;6.32;4.53;;;;;23.20;102021.00;;;;5048467;28;20199;-81
2023/05/13 08:12:16;;;;;;;7.05;4.13;;;;;23.30;102015.00;;;;5048237;28;20203;-82
2023/05/13 08:14:43;;;;;;;5.63;4.80;;;;;23.40;102013.00;;;;5048795;28;20200;-81
2023/05/13 08:17:12;;;;;;;8.80;4.60;;;;;23.50;102021.00;;;;5048947;28;20203;-80
2023/05/13 08:19:39;;;;;;;6.82;5.07;;;;;23.50;102022.00;;;;5049888;28;20195;-80
2023/05/13 08:22:07;;;;;;;4.47;4.07;;;;;23.60;102012.00;;;;5047741;28;20720;-81
2023/05/13 08:24:34;;;;;;;5.55;4.68;;;;;23.70;102017.00;;;;5048664;28;20203;-80
2023/05/13 08:27:02;;;;;;;4.85;4.20;;;;;23.80;102023.00;;;;5048240;28;20192;-82
2023/05/13 08:29:29;;;;;;;6.13;3.75;;;;;23.90;102021.00;;;;5048556;28;20269;-82
2023/05/13 08:31:57;;;;;;;5.40;3.58;;;;;24.00;102019.00;;;;5048384;28;20576;-82
2023/05/13 08:34:26;;;;;;;4.85;3.78;;;;;24.10;102021.00;;;;5049092;28;20238;-83
2023/05/13 08:36:53;;;;;;;5.38;4.22;;;;;24.30;102025.00;;;;5048759;28;20218;-80
2023/05/13 08:39:20;;;;;;;6.20;4.28;;;;;24.40;102018.00;;;;5054154;28;20219;-80
2023/05/13 08:41:49;;;;;;;3.80;3.20;;;;;24.50;102021.00;;;;5052186;28;20195;-81
2023/05/13 08:44:19;;;;;;;8.98;4.07;;;;;24.60;102025.00;;;;5061710;28;20227;-81
2023/05/13 08:47:06;;;;;;;4.70;3.75;;;;;24.60;102016.00;;;;5047904;28;20406;-78
2023/05/13 08:49:35;;;;;;;5.00;3.30;;;;;24.80;102016.00;;;;5056655;28;20194;-80
2023/05/13 08:52:02;;;;;;;3.67;3.38;;;;;24.90;102016.00;;;;5068256;28;20206;-80
2023/05/13 08:54:31;;;;;;;3.97;3.45;;;;;25.10;102017.00;;;;5056636;28;20589;-80
2023/05/13 08:56:58;;;;;;;3.63;3.33;;;;;25.20;102021.00;;;;5052447;28;20201;-80
2023/05/13 08:59:26;;;;;;;4.35;3.95;;;;;25.30;102022.00;;;;5052059;28;20195;-82
2023/05/13 09:01:55;;;;;;;4.00;3.47;;;;;25.40;102020.00;;;;5051559;28;20231;-80
2023/05/13 09:04:22;;;;;;;4.07;3.65;;;;;25.50;102018.00;;;;5052668;28;20253;-79
2023/05/13 09:06:51;;;;;;;5.70;3.95;;;;;25.60;102021.00;;;;5071949;28;20696;-79
2023/05/13 09:09:18;;;;;;;3.97;3.42;;;;;25.70;102019.00;;;;5066965;28;20666;-80
2023/05/13 09:11:48;;;;;;;5.07;3.55;;;;;25.80;102022.00;;;;5053932;28;20292;-80
2023/05/13 09:14:19;;;;;;;4.75;3.50;;;;;25.90;102020.00;;;;5062490;28;20244;-81
2023/05/13 09:16:48;;;;;;;5.88;3.55;;;;;26.00;102023.00;;;;5066059;28;20203;-79
2023/05/13 09:19:15;;;;;;;4.15;3.13;;;;;26.20;102015.00;;;;5067323;28;20199;-81
2023/05/13 09:21:44;;;;;;;4.95;3.85;;;;;26.30;102026.00;;;;5059465;28;20278;-81
2023/05/13 09:24:17;;;;;;;4.25;3.30;;;;;26.40;102024.00;;;;5057530;28;20233;-80
2023/05/13 09:26:45;;;;;;;4.80;4.18;;;;;26.50;102023.00;;;;5059438;28;21054;-80
2023/05/13 09:29:20;;;;;;;5.00;3.97;;;;;26.60;102022.00;;;;5051608;28;20233;-79
2023/05/13 09:31:49;;;;;;;4.03;3.63;;;;;26.70;102019.00;;;;5056936;28;20195;-81
2023/05/13 09:34:26;;;;;;;9.30;3.75;;;;;26.80;102024.00;;;;5069292;28;20242;-81
2023/05/13 09:37:04;;;;;;;4.30;3.70;;;;;26.90;102025.00;;;;5051483;28;20210;-81
2023/05/13 09:39:38;;;;;;;4.97;3.53;;;;;27.00;102026.00;;;;5055452;28;20214;-81
2023/05/13 09:42:14;;;;;;;3.83;3.40;;;;;27.10;102025.00;;;;5059558;28;20223;-81
2023/05/13 09:44:42;;;;;;;4.25;3.35;;;;;27.20;102024.00;;;;5066100;28;20231;-81
2023/05/13 09:47:12;;;;;;;3.63;3.33;;;;;27.30;102020.00;;;;5052856;28;20575;-81
2023/05/13 09:49:41;;;;;;;4.32;3.92;;;;;27.30;102023.00;;;;5065554;28;20684;-81
2023/05/13 09:52:10;;;;;;;4.22;3.40;;;;;27.40;102020.00;;;;5062365;28;20199;-82
2023/05/13 09:54:39;;;;;;;4.20;3.80;;;;;27.50;102018.00;;;;5060179;28;20326;-80
2023/05/13 09:57:06;;;;;;;5.28;3.67;;;;;27.60;102023.00;;;;5052005;28;20196;-81
2023/05/13 09:59:35;;;;;;;5.03;3.85;;;;;27.60;102024.00;;;;5056797;28;20664;-81
2023/05/13 10:02:05;;;;;;;5.05;3.88;;;;;27.70;102020.00;;;;5065210;28;20226;-80
2023/05/13 10:04:33;;;;;;;8.65;3.85;;;;;27.80;102027.00;;;;5061642;28;20233;-81
2023/05/13 10:07:04;;;;;;;3.88;3.55;;;;;27.80;102021.00;;;;5051516;28;20195;-81
2023/05/13 10:09:36;;;;;;;4.38;3.30;;;;;27.80;102016.00;;;;5063869;28;20203;-82
2023/05/13 10:12:09;;;;;;;5.13;4.03;;;;;27.90;102018.00;;;;5056373;28;20199;-80
2023/05/13 10:14:37;;;;;;;3.55;3.25;;;;;28.00;102013.00;;;;5064572;28;20196;-82
2023/05/13 10:17:06;;;;;;;5.80;3.30;;;;;28.10;102021.00;;;;5051797;28;20200;-82
2023/05/13 10:19:34;;;;;;;6.18;3.90;;;;;28.20;102024.00;;;;5059851;28;20221;-82
2023/05/13 10:22:02;;;;;;;3.80;3.42;;;;;28.20;102013.00;;;;5061782;28;20203;-81
2023/05/13 10:24:31;;;;;;;4.95;3.72;;;;;28.20;102019.00;;;;5068768;28;20234;-82
2023/05/13 10:27:00;;;;;;;6.53;4.07;;;;;28.20;102006.00;;;;5048540;28;20199;-83
2023/05/13 10:29:32;;;;;;;3.67;3.33;;;;;28.20;102005.00;;;;5051923;28;20206;-84
2023/05/13 10:32:00;;;;;;;4.05;3.20;;;;;28.20;102004.00;;;;5070463;28;20199;-82
2023/05/13 10:34:30;;;;;;;6.20;3.83;;;;;28.30;102006.00;;;;5070968;28;20234;-83
2023/05/13 10:37:13;;;;;;;4.25;3.60;;;;;28.20;102009.00;;;;5058490;28;20210;-85
2023/05/13 10:40:20;;;;;;;5.43;3.63;;;;;28.20;102011.00;;;;5050924;28;20219;-85
2023/05/13 10:42:54;;;;;;;3.80;3.50;;;;;28.30;101997.00;;;;4988610;28;20710;-84
2023/05/13 10:45:27;;;;;;;5.07;3.35;;;;;28.30;102005.00;;;;5038340;28;20196;-82
2023/05/13 10:47:56;;;;;;;3.58;3.22;;;;;28.40;102000.00;;;;5047500;28;20222;-82
2023/05/13 10:50:24;;;;;;;3.83;3.42;;;;;28.50;101997.00;;;;5058426;28;20714;-82
2023/05/13 10:52:57;;;;;;;3.97;3.55;;;;;28.50;102005.00;;;;5048584;28;20206;-82
2023/05/13 10:55:26;;;;;;;3.05;2.85;;;;;28.60;101997.00;;;;5055868;28;20195;-81
2023/05/13 10:58:10;;;;;;;4.47;3.60;;;;;28.50;101996.00;;;;5057365;28;21001;-80
2023/05/13 11:00:41;;;;;;;4.75;3.40;;;;;28.70;101987.00;;;;5060192;28;20678;-81
2023/05/13 11:03:28;;;;;;;3.60;2.88;;;;;28.70;101989.00;;;;5054863;28;20227;-81
2023/05/13 11:06:15;;;;;;;7.93;3.38;;;;;28.70;101991.00;;;;5051025;28;20195;-82
2023/05/13 11:08:43;;;;;;;4.82;3.13;;;;;28.80;101982.00;;;;5049817;28;20257;-81
2023/05/13 11:11:26;;;;;;;3.42;3.13;;;;;28.80;101988.00;;;;5048229;28;20199;-80
2023/05/13 11:13:54;;;;;;;3.80;3.25;;;;;28.90;101988.00;;;;5048987;28;20206;-80
2023/05/13 11:16:23;;;;;;;3.45;3.15;;;;;28.90;101976.00;;;;5045690;28;20576;-80
2023/05/13 11:18:52;;;;;;;4.00;3.60;;;;;28.90;101990.00;;;;5048874;28;20253;-78
2023/05/13 11:21:30;;;;;;;3.85;3.30;;;;;28.80;101976.00;;;;5048695;28;20215;-82
2023/05/13 11:23:58;;;;;;;3.42;2.78;;;;;29.00;101982.00;;;;5047405;28;20224;-79
2023/05/13 11:26:25;;;;;;;3.75;3.40;;;;;29.00;101984.00;;;;5049720;28;20204;-83
2023/05/13 11:29:03;;;;;;;3.72;3.10;;;;;29.00;101990.00;;;;5048678;28;20211;-81
2023/05/13 11:31:48;;;;;;;3.03;2.67;;;;;29.00;101984.00;;;;5091494;27;1227001;-81
2023/05/13 11:34:17;;;;;;;3.92;2.85;;;;;29.00;101986.00;;;;5121684;28;20470;-84
2023/05/13 11:36:46;;;;;;;3.88;3.08;;;;;29.10;101977.00;;;;5125994;28;20196;-82
2023/05/13 11:39:15;;;;;;;2.75;2.55;;;;;29.20;101990.00;;;;5110091;28;20214;-81
2023/05/13 11:41:45;;;;;;;7.78;3.17;;;;;29.20;101979.00;;;;5105702;28;20193;-83
2023/05/13 11:44:14;;;;;;;4.97;3.08;;;;;29.20;101985.00;;;;5105519;28;20299;-82
2023/05/13 11:46:57;;;;;;;4.78;3.63;;;;;29.10;101984.00;;;;5104649;28;20281;-83
2023/05/13 11:49:35;;;;;;;3.47;3.00;;;;;29.10;101970.00;;;;5105331;28;20204;-84
2023/05/13 11:52:04;;;;;;;6.63;3.38;;;;;29.20;101975.00;;;;5098538;28;20189;-82
2023/05/13 11:54:32;;;;;;;5.30;2.75;;;;;29.20;101972.00;;;;5099695;28;20205;-82
2023/05/13 11:56:59;;;;;;;3.50;3.20;;;;;29.30;101967.00;;;;5101422;28;20197;-78
2023/05/13 11:59:26;;;;;;;3.55;3.25;;;;;29.20;101966.00;;;;5099943;28;20589;-79
2023/05/13 12:02:02;;;;;;;3.60;3.30;;;;;29.20;101963.00;;;;5100764;28;20202;-77
2023/05/13 12:04:30;;;;;;;3.35;3.05;;;;;29.30;101967.00;;;;5095716;28;20201;-77
2023/05/13 12:06:57;;;;;;;4.68;3.00;;;;;29.30;101969.00;;;;5101587;28;20193;-79
2023/05/13 12:09:25;;;;;;;8.30;3.22;;;;;29.30;101973.00;;;;5104416;28;20205;-77
2023/05/13 12:11:53;;;;;;;6.07;3.65;;;;;29.40;101962.00;;;;5104259;28;20205;-78
2023/05/13 12:14:21;;;;;;;3.55;3.05;;;;;29.40;101959.00;;;;5103565;28;20276;-77
2023/05/13 12:16:49;;;;;;;6.57;3.38;;;;;29.50;101966.00;;;;5104501;28;20271;-77